Time;durP1;ratioP1;P1;durP2;ratioP2;P2;SDS_P1;SDS_P2;PMS_P1;PMS_P2;Temp;Humidity;BMP_temperature;BMP_pressure;BME280_temperature;BME280_humidity;BME280_pressure;Samples;Min_cycle;Max_cycle;Signal;HPM_P1;HPM_P2
2021/10/02 00:44:55;;;;;;;3.30;2.60;;;;;;;12.48;nan;100511.66;5070511;28;20178;-74
2021/10/02 00:47:23;;;;;;;4.00;2.58;;;;;;;12.45;nan;100501.38;5069686;28;20119;-73
2021/10/02 00:49:51;;;;;;;3.55;2.30;;;;;;;12.45;nan;100513.81;5075834;28;20044;-74
2021/10/02 00:52:18;;;;;;;3.13;2.58;;;;;;;12.38;nan;100521.59;5051769;28;20036;-74
2021/10/02 00:54:44;;;;;;;4.10;2.60;;;;;;;12.40;nan;100524.94;5069327;28;20044;-74
2021/10/02 00:57:10;;;;;;;4.57;2.33;;;;;;;12.39;nan;100527.72;5052116;28;20604;-74
2021/10/02 00:59:36;;;;;;;4.03;2.80;;;;;;;12.39;nan;100527.72;5052303;28;20503;-74
2021/10/02 01:02:09;;;;;;;5.95;3.10;;;;;;;12.43;nan;100529.06;5069829;28;20365;-74
2021/10/02 01:05:05;;;;;;;4.05;2.70;;;;;;;12.48;nan;100532.88;5069569;28;20028;-74
2021/10/02 01:07:40;;;;;;;4.30;2.85;;;;;;;12.57;nan;100527.59;5069749;28;20037;-73
2021/10/02 01:10:14;;;;;;;5.70;2.90;;;;;;;12.57;nan;100523.13;5068864;28;20037;-74
2021/10/02 01:13:00;;;;;;;4.63;2.60;;;;;;;12.59;nan;100515.00;5051941;28;20035;-74
2021/10/02 01:15:44;;;;;;;5.40;2.75;;;;;;;12.63;nan;100527.78;5059248;28;20052;-74
2021/10/02 01:18:48;;;;;;;4.18;2.60;;;;;;;12.67;nan;100521.13;5069350;28;20047;-74
2021/10/02 01:21:47;;;;;;;4.35;2.80;;;;;;;12.83;nan;100512.34;5035842;28;20115;-74
2021/10/02 01:24:46;;;;;;;5.57;2.90;;;;;;;12.80;nan;100507.38;5068537;28;20112;-74
2021/10/02 01:27:40;;;;;;;4.43;2.80;;;;;;;12.86;nan;100511.19;5068612;28;20033;-74
2021/10/02 01:30:15;;;;;;;4.75;2.90;;;;;;;12.88;nan;100506.53;5067781;28;20090;-73
2021/10/02 01:32:54;;;;;;;4.10;2.58;;;;;;;12.86;nan;100495.25;5052439;28;20123;-73
2021/10/02 01:35:30;;;;;;;6.03;2.92;;;;;;;12.90;nan;100504.53;5057220;28;20115;-73
2021/10/02 01:48:58;;;;;;;4.32;2.60;;;;;;;12.99;nan;100494.72;5075325;28;20091;-74
2021/10/02 01:51:24;;;;;;;4.22;2.83;;;;;;;12.94;nan;100496.09;5050799;28;20041;-73
2021/10/02 01:53:51;;;;;;;4.63;2.80;;;;;;;12.95;nan;100492.41;5069238;28;20045;-73
2021/10/02 01:56:20;;;;;;;5.45;3.35;;;;;;;13.00;nan;100499.88;5068353;28;20064;-73
2021/10/02 01:58:48;;;;;;;5.30;3.00;;;;;;;13.07;nan;100497.38;5050713;28;20043;-73
2021/10/02 02:01:14;;;;;;;4.43;2.83;;;;;;;12.98;nan;100495.75;5059458;28;20147;-74
2021/10/02 02:03:43;;;;;;;4.97;2.40;;;;;;;12.87;nan;100484.47;5068971;28;20069;-74
2021/10/02 02:06:10;;;;;;;4.22;2.90;;;;;;;12.82;nan;100485.97;5050076;28;20028;-73
2021/10/02 02:08:38;;;;;;;5.20;3.00;;;;;;;12.79;nan;100481.81;5069713;28;20021;-73
2021/10/02 02:11:04;;;;;;;5.78;2.55;;;;;;;12.74;nan;100484.97;5068614;28;20447;-73
2021/10/02 02:13:30;;;;;;;4.07;2.20;;;;;;;12.75;nan;100476.03;5069066;28;20028;-73
2021/10/02 02:15:59;;;;;;;4.90;2.58;;;;;;;12.81;nan;100468.41;5069074;28;20096;-73
2021/10/02 02:18:26;;;;;;;6.03;3.08;;;;;;;12.88;nan;100472.84;5069696;28;20028;-73
2021/10/02 02:21:04;;;;;;;4.18;2.83;;;;;;;12.85;nan;100465.25;5050578;28;20031;-73
2021/10/02 02:23:30;;;;;;;6.35;2.92;;;;;;;12.84;nan;100468.88;5068531;28;20024;-73
2021/10/02 02:26:00;;;;;;;4.10;2.55;;;;;;;12.85;nan;100475.03;5071399;28;20051;-74
2021/10/02 02:28:27;;;;;;;4.60;2.83;;;;;;;12.83;nan;100464.56;5067655;28;20036;-74
2021/10/02 02:30:53;;;;;;;3.70;2.53;;;;;;;12.84;nan;100460.91;5048099;28;20060;-74
2021/10/02 02:33:19;;;;;;;3.80;2.20;;;;;;;12.83;nan;100461.09;5069389;28;20123;-74
2021/10/02 02:35:46;;;;;;;5.13;2.10;;;;;;;12.84;nan;100462.75;5047600;28;20040;-74
2021/10/02 02:38:12;;;;;;;3.25;2.15;;;;;;;12.87;nan;100460.59;5066221;28;20052;-74
2021/10/02 02:40:37;;;;;;;3.72;1.95;;;;;;;12.91;nan;100451.28;5069079;28;20074;-74
2021/10/02 02:43:04;;;;;;;3.83;2.20;;;;;;;12.92;nan;100455.59;5072015;28;20107;-74
2021/10/02 02:45:29;;;;;;;4.32;2.65;;;;;;;12.88;nan;100448.97;5053385;28;20029;-74
2021/10/02 02:48:06;;;;;;;3.53;2.00;;;;;;;12.92;nan;100460.91;5070878;28;20040;-74
2021/10/02 02:50:58;;;;;;;4.15;2.20;;;;;;;12.87;nan;100452.63;5054558;28;20401;-74
2021/10/02 02:53:47;;;;;;;5.40;2.63;;;;;;;12.81;nan;100460.44;5070910;28;20086;-74
2021/10/02 02:56:21;;;;;;;3.72;2.10;;;;;;;12.83;nan;100459.28;5069976;28;20498;-74
2021/10/02 02:58:51;;;;;;;3.55;2.00;;;;;;;12.84;nan;100462.75;5059679;28;20095;-74
2021/10/02 03:01:20;;;;;;;4.70;2.40;;;;;;;12.92;nan;100455.59;5073777;28;20041;-74
2021/10/02 03:03:46;;;;;;;4.53;2.33;;;;;;;12.92;nan;100460.09;5071991;28;20033;-74
2021/10/02 03:06:13;;;;;;;4.18;2.33;;;;;;;13.00;nan;100461.91;5071193;28;20028;-74
2021/10/02 03:08:42;;;;;;;4.68;2.22;;;;;;;13.03;nan;100446.44;5071156;28;20446;-74
2021/10/02 03:11:08;;;;;;;3.97;2.40;;;;;;;13.09;nan;100472.31;5053117;28;20484;-74
2021/10/02 03:13:35;;;;;;;3.60;1.98;;;;;;;13.10;nan;100475.81;5070364;28;20732;-75
2021/10/02 03:16:04;;;;;;;4.53;2.55;;;;;;;13.05;nan;100470.19;5069947;28;20039;-75
2021/10/02 03:18:33;;;;;;;5.22;2.25;;;;;;;13.09;nan;100466.19;5070912;28;20515;-74
2021/10/02 03:20:59;;;;;;;4.18;1.98;;;;;;;13.17;nan;100464.31;5070593;28;20336;-75
2021/10/02 03:23:27;;;;;;;4.40;2.10;;;;;;;13.20;nan;100468.47;5070624;28;20044;-75
2021/10/02 03:25:53;;;;;;;3.85;2.38;;;;;;;13.30;nan;100469.16;5070870;28;20420;-75
2021/10/02 03:28:19;;;;;;;3.33;2.25;;;;;;;13.31;nan;100460.19;5070798;28;20489;-75
2021/10/02 03:30:44;;;;;;;4.75;2.40;;;;;;;13.30;nan;100449.72;5068820;28;20355;-75
2021/10/02 03:33:11;;;;;;;4.68;2.20;;;;;;;13.27;nan;100453.53;5073283;28;20032;-75
2021/10/02 03:35:37;;;;;;;3.05;1.98;;;;;;;13.32;nan;100451.22;5069905;28;20036;-75
2021/10/02 03:38:03;;;;;;;5.47;2.53;;;;;;;13.25;nan;100454.69;5070812;28;20024;-75
2021/10/02 03:40:29;;;;;;;3.67;1.90;;;;;;;13.23;nan;100457.53;5052509;28;20501;-75
2021/10/02 03:42:56;;;;;;;4.28;2.33;;;;;;;13.24;nan;100453.03;5070894;28;20063;-75
2021/10/02 03:45:25;;;;;;;3.13;1.83;;;;;;;13.25;nan;100458.19;5070526;28;20041;-75
2021/10/02 03:47:50;;;;;;;3.40;1.80;;;;;;;13.22;nan;100455.03;5073777;28;20501;-75
2021/10/02 03:50:16;;;;;;;3.15;1.98;;;;;;;13.26;nan;100451.88;5073721;28;20048;-75
2021/10/02 03:52:42;;;;;;;3.80;1.90;;;;;;;13.20;nan;100457.03;5069415;28;20032;-75
2021/10/02 03:55:10;;;;;;;3.85;2.00;;;;;;;13.08;nan;100448.59;5069351;28;20176;-75
2021/10/02 03:57:35;;;;;;;4.63;2.45;;;;;;;12.95;nan;100444.66;5070201;28;20508;-75
2021/10/02 04:00:03;;;;;;;4.10;2.20;;;;;;;12.84;nan;100452.94;5069515;28;20039;-76
2021/10/02 04:02:28;;;;;;;3.50;1.65;;;;;;;12.75;nan;100456.59;5052506;28;20570;-75
2021/10/02 04:04:54;;;;;;;3.78;2.10;;;;;;;12.77;nan;100459.09;5069098;28;20082;-75
2021/10/02 04:07:19;;;;;;;3.60;1.75;;;;;;;12.73;nan;100453.31;5075873;28;20085;-75
2021/10/02 04:09:44;;;;;;;3.42;1.98;;;;;;;12.77;nan;100451.16;5072361;28;20524;-75
2021/10/02 04:12:09;;;;;;;4.35;1.98;;;;;;;12.76;nan;100442.38;5072684;28;20397;-73
2021/10/02 04:14:35;;;;;;;2.45;1.60;;;;;;;12.73;nan;100445.34;5072686;28;20035;-75
2021/10/02 04:17:01;;;;;;;3.22;1.80;;;;;;;12.79;nan;100454.47;5070278;28;20032;-75
2021/10/02 04:19:27;;;;;;;3.40;1.67;;;;;;;12.66;nan;100439.06;5070909;28;20505;-75
2021/10/02 04:21:53;;;;;;;5.05;2.05;;;;;;;12.68;nan;100447.66;5070664;28;20516;-75
2021/10/02 04:24:18;;;;;;;4.15;1.90;;;;;;;12.66;nan;100444.38;5070733;28;20028;-75
2021/10/02 04:26:44;;;;;;;5.38;2.05;;;;;;;12.64;nan;100441.88;5049925;28;20033;-75
2021/10/02 04:29:10;;;;;;;3.08;1.50;;;;;;;12.71;nan;100442.03;5070872;28;20032;-75
2021/10/02 04:31:35;;;;;;;3.60;1.90;;;;;;;12.74;nan;100444.34;5052368;28;20094;-75
2021/10/02 04:34:01;;;;;;;4.45;1.90;;;;;;;12.79;nan;100434.06;5062373;28;20541;-75
2021/10/02 04:36:26;;;;;;;3.55;1.55;;;;;;;12.83;nan;100432.72;5069687;28;20315;-75
2021/10/02 04:38:53;;;;;;;2.90;1.50;;;;;;;12.85;nan;100432.56;5070086;28;20508;-75
2021/10/02 04:41:19;;;;;;;2.22;1.42;;;;;;;12.84;nan;100418.44;5070848;28;20024;-75
2021/10/02 04:43:44;;;;;;;3.63;1.73;;;;;;;12.91;nan;100416.78;5069686;28;20125;-75
2021/10/02 04:46:12;;;;;;;3.42;1.88;;;;;;;12.94;nan;100416.47;5069038;28;20116;-75
2021/10/02 04:48:38;;;;;;;3.53;1.80;;;;;;;12.95;nan;100418.09;5075756;28;20032;-75
2021/10/02 04:51:05;;;;;;;4.85;1.83;;;;;;;12.94;nan;100405.84;5069888;28;20041;-75
2021/10/02 04:53:30;;;;;;;2.85;1.35;;;;;;;12.93;nan;100412.13;5071622;28;20032;-75
2021/10/02 04:55:59;;;;;;;3.92;1.55;;;;;;;12.95;nan;100409.31;5070529;28;20032;-75
2021/10/02 04:58:25;;;;;;;3.33;1.60;;;;;;;12.91;nan;100405.34;5070324;28;20047;-74
2021/10/02 05:00:50;;;;;;;3.17;1.80;;;;;;;12.86;nan;100399.72;5052242;28;20036;-75
2021/10/02 05:03:16;;;;;;;3.40;1.50;;;;;;;12.81;nan;100397.56;5071313;28;20049;-75
2021/10/02 05:05:41;;;;;;;3.10;1.50;;;;;;;12.80;nan;100392.44;5071656;28;20048;-75
2021/10/02 05:08:07;;;;;;;2.80;1.60;;;;;;;12.75;nan;100391.13;5072004;28;20496;-75
2021/10/02 05:10:32;;;;;;;1.90;1.30;;;;;;;12.67;nan;100408.88;5054876;28;20045;-75
2021/10/02 05:12:57;;;;;;;2.55;1.50;;;;;;;12.56;nan;100412.72;5072382;28;20035;-75
2021/10/02 05:15:23;;;;;;;2.33;1.40;;;;;;;12.49;nan;100415.22;5082810;28;20032;-75
2021/10/02 05:17:48;;;;;;;2.75;1.65;;;;;;;12.37;nan;100413.88;5058252;28;20085;-75
2021/10/02 05:20:13;;;;;;;4.00;1.63;;;;;;;12.30;nan;100418.19;5068932;28;20170;-75
2021/10/02 05:22:39;;;;;;;3.28;1.60;;;;;;;12.28;nan;100412.22;5070408;28;20398;-75
2021/10/02 05:25:04;;;;;;;2.30;1.40;;;;;;;12.21;nan;100420.00;5070581;28;20165;-75
2021/10/02 05:27:30;;;;;;;2.65;1.50;;;;;;;12.16;nan;100426.81;5052811;28;20081;-75
2021/10/02 05:29:55;;;;;;;3.08;1.75;;;;;;;12.13;nan;100432.41;5071179;28;20132;-75
2021/10/02 05:32:20;;;;;;;2.78;1.33;;;;;;;12.12;nan;100434.25;5052023;28;20040;-75
2021/10/02 05:34:46;;;;;;;2.80;1.45;;;;;;;12.10;nan;100430.94;5056769;28;20545;-75
2021/10/02 05:37:11;;;;;;;2.70;1.58;;;;;;;12.09;nan;100429.28;5052028;28;20559;-75
2021/10/02 05:39:36;;;;;;;3.20;1.67;;;;;;;12.14;nan;100431.44;5070156;28;20068;-75
2021/10/02 05:42:02;;;;;;;3.72;1.60;;;;;;;12.16;nan;100432.13;5065007;28;20041;-75
2021/10/02 05:44:28;;;;;;;4.82;2.30;;;;;;;12.20;nan;100425.47;5070127;28;20527;-75
2021/10/02 05:46:53;;;;;;;4.43;1.70;;;;;;;12.20;nan;100422.81;5064909;28;20029;-75
2021/10/02 05:49:18;;;;;;;6.90;2.03;;;;;;;12.21;nan;100430.63;5070300;28;20450;-75
2021/10/02 05:51:44;;;;;;;3.00;1.83;;;;;;;12.21;nan;100424.50;5051681;28;20033;-75
2021/10/02 05:54:10;;;;;;;3.10;1.88;;;;;;;12.24;nan;100430.28;5069063;28;20366;-75
2021/10/02 05:56:36;;;;;;;3.92;1.80;;;;;;;12.27;nan;100427.28;5068760;28;20046;-75
2021/10/02 05:59:03;;;;;;;2.42;1.50;;;;;;;12.36;nan;100420.16;5069925;28;20535;-75
2021/10/02 06:01:29;;;;;;;5.00;2.03;;;;;;;12.39;nan;100427.78;5045695;28;20041;-75
2021/10/02 06:03:54;;;;;;;3.03;1.73;;;;;;;12.48;nan;100424.13;5069948;28;20040;-75
2021/10/02 06:06:19;;;;;;;5.63;1.98;;;;;;;12.50;nan;100416.84;5068710;28;20127;-75
2021/10/02 06:08:44;;;;;;;3.33;1.95;;;;;;;12.67;nan;100432.75;5062046;28;20104;-75
2021/10/02 06:11:10;;;;;;;4.75;1.98;;;;;;;12.75;nan;100427.44;5048038;28;20046;-75
2021/10/02 06:13:35;;;;;;;4.40;1.90;;;;;;;12.92;nan;100431.72;5068636;28;20063;-75
2021/10/02 06:16:01;;;;;;;4.65;1.73;;;;;;;13.02;nan;100433.38;5069685;28;20112;-78
2021/10/02 06:18:26;;;;;;;3.45;1.92;;;;;;;13.15;nan;100437.13;5073016;28;20032;-76
2021/10/02 06:20:52;;;;;;;4.07;1.88;;;;;;;13.22;nan;100421.34;5073627;28;20039;-75
2021/10/02 06:23:18;;;;;;;7.85;1.90;;;;;;;13.34;nan;100425.31;5055773;28;20025;-76
2021/10/02 06:25:43;;;;;;;5.43;1.98;;;;;;;13.44;nan;100421.63;5072671;28;20044;-75
2021/10/02 06:28:09;;;;;;;2.67;1.55;;;;;;;13.47;nan;100416.78;5073346;28;20044;-75
2021/10/02 06:30:34;;;;;;;3.65;1.90;;;;;;;13.62;nan;100414.22;5072758;28;20047;-75
2021/10/02 06:32:59;;;;;;;5.03;2.03;;;;;;;13.66;nan;100412.88;5057555;28;20123;-75
2021/10/02 06:35:25;;;;;;;4.13;1.88;;;;;;;13.79;nan;100421.09;5054595;28;20400;-75
2021/10/02 06:37:50;;;;;;;4.15;1.90;;;;;;;13.87;nan;100427.34;5072154;28;20463;-75
2021/10/02 06:40:16;;;;;;;4.95;1.60;;;;;;;14.02;nan;100422.97;5071751;28;20467;-75
2021/10/02 06:42:41;;;;;;;2.75;1.45;;;;;;;14.14;nan;100431.34;5072248;28;20036;-75
2021/10/02 06:45:08;;;;;;;3.70;1.52;;;;;;;14.28;nan;100424.41;5072239;28;20035;-75
2021/10/02 06:47:34;;;;;;;3.58;1.90;;;;;;;14.35;nan;100423.53;5073384;28;20404;-75
2021/10/02 06:50:00;;;;;;;4.15;1.98;;;;;;;14.53;nan;100425.88;5084674;28;20032;-75
2021/10/02 06:52:29;;;;;;;4.38;2.20;;;;;;;14.61;nan;100417.84;5071564;28;20040;-75
2021/10/02 06:54:55;;;;;;;3.30;1.60;;;;;;;14.65;nan;100428.94;5071819;28;20055;-75
2021/10/02 06:57:21;;;;;;;2.58;1.60;;;;;;;14.82;nan;100424.28;5054081;28;20075;-75
2021/10/02 06:59:47;;;;;;;2.25;1.40;;;;;;;14.96;nan;100428.81;5054682;28;20024;-75
2021/10/02 07:02:12;;;;;;;4.40;1.52;;;;;;;15.04;nan;100427.88;5054927;28;20041;-75
2021/10/02 07:04:38;;;;;;;3.33;1.80;;;;;;;15.05;nan;100422.38;5073178;28;20044;-75
2021/10/02 07:07:04;;;;;;;4.30;1.90;;;;;;;15.04;nan;100419.91;5071798;28;20032;-75
2021/10/02 07:09:30;;;;;;;3.25;1.60;;;;;;;15.01;nan;100421.09;5054569;28;20021;-75
2021/10/02 07:11:56;;;;;;;3.22;1.60;;;;;;;15.04;nan;100415.41;5072363;28;20063;-75
2021/10/02 07:14:22;;;;;;;4.32;1.80;;;;;;;15.07;nan;100419.56;5071339;28;20438;-75
2021/10/02 07:16:47;;;;;;;5.20;1.77;;;;;;;15.11;nan;100425.31;5054732;28;20166;-75
2021/10/02 07:19:13;;;;;;;2.97;1.52;;;;;;;15.21;nan;100426.72;5073089;28;20040;-75
2021/10/02 07:21:40;;;;;;;3.30;1.70;;;;;;;15.31;nan;100415.78;5072509;28;20405;-75
2021/10/02 07:24:06;;;;;;;4.50;1.60;;;;;;;15.38;nan;100416.69;5071609;28;20040;-75
2021/10/02 07:26:31;;;;;;;2.80;1.60;;;;;;;15.41;nan;100407.47;5054154;28;20086;-76
2021/10/02 07:28:56;;;;;;;4.57;1.70;;;;;;;15.40;nan;100409.31;5051304;28;20041;-75
2021/10/02 07:31:21;;;;;;;4.22;1.65;;;;;;;15.55;nan;100406.63;5071258;28;20436;-75
2021/10/02 07:33:48;;;;;;;3.10;1.65;;;;;;;15.57;nan;100415.28;5083319;28;20620;-75
2021/10/02 07:36:15;;;;;;;3.42;1.70;;;;;;;15.73;nan;100408.94;5052759;28;20040;-75
2021/10/02 07:38:41;;;;;;;3.13;1.70;;;;;;;15.73;nan;100408.94;5071520;28;20039;-75
2021/10/02 07:41:06;;;;;;;;;;;;;;;15.88;nan;100409.69;5071889;28;20040;-76
2021/10/02 07:43:34;;;;;;;2.78;1.60;;;;;;;15.96;nan;100414.06;5052891;28;20327;-75
2021/10/02 07:46:01;;;;;;;3.25;1.70;;;;;;;16.00;nan;100409.19;5070995;28;20536;-76
2021/10/02 07:48:27;;;;;;;5.10;1.65;;;;;;;16.11;nan;100408.66;5069874;28;20436;-76
2021/10/02 07:50:54;;;;;;;4.18;1.52;;;;;;;16.35;nan;100415.44;5053251;28;20032;-75
2021/10/02 07:53:21;;;;;;;4.30;1.80;;;;;;;16.51;nan;100419.69;5070144;28;20036;-75
2021/10/02 07:55:48;;;;;;;2.60;1.52;;;;;;;16.75;nan;100419.25;5071566;28;20032;-75
2021/10/02 07:58:14;;;;;;;3.72;1.52;;;;;;;17.09;nan;100420.34;5070897;28;20521;-76
2021/10/02 08:00:39;;;;;;;3.85;1.63;;;;;;;17.49;nan;100420.50;5053518;28;20032;-75
2021/10/02 08:03:05;;;;;;;3.83;1.67;;;;;;;18.13;nan;100413.09;5070729;28;20036;-75
2021/10/02 08:05:31;;;;;;;2.97;1.70;;;;;;;18.52;nan;100414.13;5070034;28;20045;-73
2021/10/02 08:07:57;;;;;;;3.88;1.90;;;;;;;18.92;nan;100411.44;5053217;28;20058;-76
2021/10/02 08:10:26;;;;;;;3.67;1.90;;;;;;;19.33;nan;100410.28;5071590;28;20212;-76
2021/10/02 08:12:52;;;;;;;3.38;1.77;;;;;;;19.66;nan;100408.31;5071646;28;20048;-74
2021/10/02 08:15:18;;;;;;;3.72;1.80;;;;;;;19.99;nan;100404.63;5068722;28;20031;-74
2021/10/02 08:17:44;;;;;;;4.93;2.22;;;;;;;20.45;nan;100410.66;5052973;28;20056;-74
2021/10/02 08:20:16;;;;;;;5.00;2.00;;;;;;;20.70;nan;100411.50;5053122;28;20162;-73
2021/10/02 08:22:45;;;;;;;3.78;1.90;;;;;;;20.92;nan;100414.59;5054156;28;20041;-73
2021/10/02 08:25:12;;;;;;;4.35;2.20;;;;;;;21.33;nan;100413.13;5070455;28;20123;-76
2021/10/02 08:27:37;;;;;;;4.53;2.20;;;;;;;21.78;nan;100407.38;5071870;28;20033;-74
2021/10/02 08:30:05;;;;;;;4.18;2.28;;;;;;;21.91;nan;100410.94;5070836;28;20032;-74
2021/10/02 08:32:30;;;;;;;4.32;2.05;;;;;;;22.04;nan;100413.44;5052598;28;20123;-76
2021/10/02 08:34:56;;;;;;;3.75;2.35;;;;;;;21.87;nan;100415.13;5075279;28;20576;-76
2021/10/02 08:37:21;;;;;;;4.82;2.38;;;;;;;22.13;nan;100406.66;5070739;28;20036;-74
2021/10/02 08:39:46;;;;;;;3.35;2.10;;;;;;;22.07;nan;100404.88;5069371;28;20052;-76
2021/10/02 08:42:12;;;;;;;4.53;2.40;;;;;;;22.65;nan;100406.88;5052411;28;20051;-74
2021/10/02 08:44:38;;;;;;;4.63;2.45;;;;;;;22.97;nan;100402.97;5069604;28;20036;-74
2021/10/02 08:47:03;;;;;;;5.68;2.42;;;;;;;23.30;nan;100396.94;5051094;28;20536;-73
2021/10/02 08:49:32;;;;;;;3.53;2.08;;;;;;;23.67;nan;100404.69;5071479;28;20093;-74
2021/10/02 08:51:59;;;;;;;4.22;2.38;;;;;;;24.02;nan;100395.59;5069888;28;20532;-75
2021/10/02 08:54:25;;;;;;;3.90;2.05;;;;;;;24.60;nan;100405.25;5068932;28;20215;-74
2021/10/02 08:56:51;;;;;;;4.22;2.40;;;;;;;24.96;nan;100393.03;5069348;28;20025;-74
2021/10/02 08:59:19;;;;;;;4.80;2.50;;;;;;;25.12;nan;100385.09;5070578;28;20122;-75
2021/10/02 09:01:45;;;;;;;3.55;2.15;;;;;;;25.49;nan;100379.06;5069454;28;20043;-75
2021/10/02 09:04:11;;;;;;;3.45;2.10;;;;;;;25.46;nan;100391.22;5063974;28;20032;-74
2021/10/02 09:06:36;;;;;;;4.10;2.10;;;;;;;25.29;nan;100385.06;5069599;28;20032;-74
2021/10/02 09:09:04;;;;;;;3.92;1.60;;;;;;;25.53;nan;100374.75;5069926;28;20028;-74
2021/10/02 09:11:31;;;;;;;3.05;2.00;;;;;;;25.18;nan;100376.81;5068677;28;20033;-74
2021/10/02 09:13:56;;;;;;;3.28;2.15;;;;;;;25.77;nan;100373.41;5051621;28;20391;-74
2021/10/02 09:16:21;;;;;;;4.30;1.83;;;;;;;25.91;nan;100373.00;5068448;28;20055;-74
2021/10/02 09:18:47;;;;;;;4.03;2.25;;;;;;;25.97;nan;100369.25;5069589;28;20036;-75
2021/10/02 09:21:12;;;;;;;2.67;1.73;;;;;;;25.80;nan;100358.53;5069939;28;20036;-75
2021/10/02 09:23:42;;;;;;;4.53;1.90;;;;;;;25.90;nan;100350.50;5069161;28;20511;-74
2021/10/02 09:26:08;;;;;;;3.05;1.77;;;;;;;25.51;nan;100347.16;5067409;28;20689;-74
2021/10/02 09:28:50;;;;;;;3.38;1.40;;;;;;;25.17;nan;100345.44;5049981;28;20033;-74
2021/10/02 09:31:16;;;;;;;2.70;1.60;;;;;;;24.56;nan;100340.00;5034247;28;20481;-75
2021/10/02 09:33:46;;;;;;;3.78;1.80;;;;;;;24.10;nan;100338.50;5070906;28;20500;-74
2021/10/02 09:36:25;;;;;;;2.47;1.45;;;;;;;23.53;nan;100329.41;5068967;28;20127;-74
2021/10/02 09:38:52;;;;;;;2.85;1.40;;;;;;;23.86;nan;100333.25;5069908;28;20031;-75
2021/10/02 09:41:19;;;;;;;4.28;1.40;;;;;;;23.39;nan;100325.38;5069209;28;20078;-74
2021/10/02 09:43:49;;;;;;;4.50;1.70;;;;;;;23.53;nan;100315.09;5070705;28;20028;-75
2021/10/02 09:46:15;;;;;;;2.92;1.70;;;;;;;22.78;nan;100303.34;5050909;28;20042;-75
2021/10/02 09:48:51;;;;;;;3.40;2.08;;;;;;;22.23;nan;100306.47;5068871;28;20036;-75
2021/10/02 09:51:16;;;;;;;4.85;2.20;;;;;;;22.43;nan;100303.44;5067170;28;20615;-75
2021/10/02 09:53:43;;;;;;;4.50;2.00;;;;;;;22.01;nan;100295.41;5056400;28;20044;-74
2021/10/02 09:56:12;;;;;;;4.03;1.95;;;;;;;22.24;nan;100298.16;5072770;28;20036;-74
2021/10/02 09:58:38;;;;;;;3.55;1.70;;;;;;;22.22;nan;100294.88;5073683;28;20094;-75
2021/10/02 10:01:05;;;;;;;3.50;1.90;;;;;;;21.92;nan;100294.13;5073561;28;20024;-74
2021/10/02 10:03:45;;;;;;;3.50;2.17;;;;;;;21.92;nan;100292.25;5073629;28;20028;-74
2021/10/02 10:06:22;;;;;;;3.42;1.60;;;;;;;21.69;nan;100284.97;5073097;28;20039;-74
2021/10/02 10:09:08;;;;;;;5.18;1.90;;;;;;;21.51;nan;100280.47;5073856;28;20112;-74
2021/10/02 10:11:47;;;;;;;2.95;1.70;;;;;;;21.27;nan;100284.09;5073632;28;20097;-74
2021/10/02 10:14:24;;;;;;;4.97;2.10;;;;;;;21.09;nan;100275.03;5074741;28;20033;-74
2021/10/02 10:16:56;;;;;;;4.63;1.92;;;;;;;21.04;nan;100272.19;5094088;28;20028;-74
2021/10/02 10:19:29;;;;;;;;;;;;;;;20.88;nan;100265.59;5094473;28;20306;-74
2021/10/02 10:22:14;;;;;;;3.85;1.85;;;;;;;20.98;nan;100257.81;5093677;28;20152;-74
2021/10/02 10:24:41;;;;;;;4.05;2.10;;;;;;;20.83;nan;100257.38;5093405;28;20052;-74
2021/10/02 10:27:07;;;;;;;3.33;2.00;;;;;;;20.69;nan;100256.72;5093487;28;20028;-74
2021/10/02 10:29:40;;;;;;;3.58;2.10;;;;;;;20.63;nan;100265.69;5093484;28;20393;-74
2021/10/02 10:32:07;;;;;;;3.78;1.60;;;;;;;20.77;nan;100269.03;5092840;28;20303;-74
2021/10/02 10:34:36;;;;;;;3.83;1.80;;;;;;;20.92;nan;100250.63;5074955;28;20040;-74
2021/10/02 10:37:01;;;;;;;2.90;1.80;;;;;;;20.83;nan;100253.88;5054693;28;20412;-74
2021/10/02 10:39:28;;;;;;;4.82;1.80;;;;;;;21.08;nan;100254.56;5072944;28;20030;-74
2021/10/02 10:41:53;;;;;;;2.83;1.80;;;;;;;20.90;nan;100255.41;5072944;28;20043;-74
2021/10/02 10:44:19;;;;;;;4.35;1.77;;;;;;;21.00;nan;100247.66;5071914;28;20111;-74
2021/10/02 10:46:44;;;;;;;5.35;1.67;;;;;;;21.00;nan;100242.28;5072369;28;20497;-74
2021/10/02 10:49:10;;;;;;;2.80;1.77;;;;;;;21.08;nan;100232.25;5087000;28;20040;-74
2021/10/02 10:51:37;;;;;;;3.15;1.73;;;;;;;21.14;nan;100234.00;5074223;28;20501;-74
2021/10/02 10:54:02;;;;;;;2.83;1.77;;;;;;;21.09;nan;100217.75;5092376;28;20042;-74
2021/10/02 10:56:47;;;;;;;5.28;1.83;;;;;;;21.18;nan;100224.44;5092031;28;20380;-74
2021/10/02 10:59:18;;;;;;;3.05;1.60;;;;;;;21.11;nan;100218.34;5093137;28;20115;-74
2021/10/02 11:01:43;;;;;;;4.63;1.70;;;;;;;21.21;nan;100210.53;5093351;28;20046;-75
2021/10/02 11:04:31;;;;;;;4.10;1.58;;;;;;;21.21;nan;100197.09;5091998;28;20396;-74
2021/10/02 11:06:56;;;;;;;3.83;1.80;;;;;;;21.25;nan;100200.97;5092333;28;20036;-74
2021/10/02 11:09:33;;;;;;;2.65;1.40;;;;;;;21.06;nan;100194.00;5092460;28;20039;-74
2021/10/02 11:11:59;;;;;;;2.88;1.60;;;;;;;21.12;nan;100202.00;5092623;28;20043;-74
2021/10/02 11:14:45;;;;;;;4.00;2.00;;;;;;;21.08;nan;100194.59;5088754;28;20079;-75
2021/10/02 11:17:11;;;;;;;5.10;1.73;;;;;;;21.12;nan;100193.94;5072578;28;20035;-75
2021/10/02 11:19:43;;;;;;;2.35;1.58;;;;;;;20.88;nan;100179.59;5073867;28;20403;-75
2021/10/02 11:25:45;;;;;;;2.65;1.80;;;;;;;20.76;nan;100184.91;5027325;28;20413;-75
2021/10/02 11:28:24;;;;;;;3.03;1.58;;;;;;;20.90;nan;100179.34;5072005;28;20032;-75
2021/10/02 11:30:52;;;;;;;3.25;1.60;;;;;;;21.03;nan;100179.16;5072066;28;20358;-75
2021/10/02 11:33:34;;;;;;;2.50;1.55;;;;;;;21.06;nan;100164.44;5078888;28;20424;-75
2021/10/02 11:36:00;;;;;;;3.03;1.50;;;;;;;21.18;nan;100160.72;5092614;28;20039;-75
2021/10/02 11:38:36;;;;;;;3.05;1.70;;;;;;;21.32;nan;100155.97;5073737;28;20156;-75
2021/10/02 11:41:21;;;;;;;2.72;1.67;;;;;;;21.49;nan;100145.38;5073881;28;20031;-75
2021/10/02 11:43:55;;;;;;;4.00;1.80;;;;;;;21.50;nan;100143.50;5091915;28;20028;-76
2021/10/02 11:46:25;;;;;;;2.42;1.50;;;;;;;21.39;nan;100124.44;5091648;28;20093;-75
2021/10/02 11:48:52;;;;;;;2.97;1.70;;;;;;;21.45;nan;100114.59;5080673;28;20029;-75
2021/10/02 11:51:22;;;;;;;3.08;1.75;;;;;;;21.47;nan;100109.81;5071747;28;20036;-74
2021/10/02 11:54:12;;;;;;;2.55;1.67;;;;;;;21.46;nan;100115.44;5072237;28;20642;-75
2021/10/02 11:56:39;;;;;;;2.47;1.50;;;;;;;21.35;nan;100103.56;5063516;28;20510;-75
2021/10/02 11:59:05;;;;;;;4.60;2.05;;;;;;;21.43;nan;100108.66;5071330;28;20037;-75
2021/10/02 12:01:32;;;;;;;8.35;1.40;;;;;;;21.40;nan;100096.50;5071436;28;20037;-75
2021/10/02 12:04:02;;;;;;;2.65;1.52;;;;;;;21.55;nan;100097.91;5070338;28;20433;-75
2021/10/02 12:06:28;;;;;;;2.47;1.40;;;;;;;21.71;nan;100099.03;5071057;28;20063;-75
2021/10/02 12:08:55;;;;;;;2.17;1.45;;;;;;;21.75;nan;100092.94;5071111;28;20032;-75
2021/10/02 12:11:21;;;;;;;2.15;1.60;;;;;;;21.77;nan;100088.16;5071487;28;20044;-75
2021/10/02 12:13:49;;;;;;;2.90;1.70;;;;;;;21.82;nan;100085.56;5070681;28;20033;-75
2021/10/02 12:16:26;;;;;;;3.08;1.67;;;;;;;21.91;nan;100093.28;5088132;28;20459;-75
2021/10/02 12:19:20;;;;;;;4.18;1.60;;;;;;;21.96;nan;100080.75;5091454;28;20281;-75
2021/10/02 12:22:01;;;;;;;2.30;1.52;;;;;;;21.93;nan;100080.38;5091416;28;20094;-75
2021/10/02 12:24:28;;;;;;;4.28;1.60;;;;;;;21.84;nan;100086.16;5072150;28;20123;-75
2021/10/02 12:27:03;;;;;;;2.75;1.70;;;;;;;21.87;nan;100086.72;5091062;28;20035;-75
2021/10/02 12:29:35;;;;;;;3.45;1.65;;;;;;;21.88;nan;100091.06;5090949;28;20032;-75
2021/10/02 12:32:13;;;;;;;2.95;1.55;;;;;;;21.78;nan;100087.09;5091128;28;20085;-75
2021/10/02 12:34:44;;;;;;;2.92;1.60;;;;;;;21.54;nan;100091.66;5072079;28;20436;-74
2021/10/02 12:37:16;;;;;;;3.45;1.60;;;;;;;21.55;nan;100087.13;5070679;28;20497;-75
2021/10/02 12:39:55;;;;;;;3.08;1.60;;;;;;;21.40;nan;100083.03;5070695;28;20467;-74
2021/10/02 12:42:34;;;;;;;2.80;1.88;;;;;;;21.48;nan;100078.38;5070671;28;20158;-75
2021/10/02 12:45:04;;;;;;;3.17;1.60;;;;;;;21.35;nan;100074.81;5071095;28;20341;-75
2021/10/02 12:47:29;;;;;;;5.93;1.90;;;;;;;21.23;nan;100070.47;5070909;28;20082;-75